Terminal Aerodrome Forecast
Issued by NWS

Home | Current Version | Previous Version | Text Only | Print | Product List | Glossary On
Versions: 1 2 3 4 5 6 7 8 9 10 11 12 13 14 15 16 17 18 19 20 21 22 23 24 25 26 27 28 29 30 31 32 33 34 35 36
518
FTUS41 KGYX 222257 AAC
TAFLEB
TAF AMD
KLEB 222257Z 2223/2318 20008G16KT P6SM SCT045
      TEMPO 2300/2302 1SM +TSRA OVC020CB
     FM230900 19005KT 2SM BR OVC005
     FM231400 26009G16KT P6SM SCT050=

USA.gov is the U.S. government's official web portal to all federal, state and local government web resources and services.